createdAt,value
2023-05-14T00:00:34.349Z,96396.31
2023-05-14T00:03:01.369Z,96380.03
2023-05-14T00:05:28.284Z,96382.34
2023-05-14T00:07:55.119Z,96367.94
2023-05-14T00:10:22.338Z,96384.50
2023-05-14T00:12:49.393Z,96363.13
2023-05-14T00:15:16.264Z,96368.50
2023-05-14T00:17:43.460Z,96349.78
2023-05-14T00:20:12.360Z,96353.44
2023-05-14T00:22:40.363Z,96381.66
2023-05-14T00:25:08.899Z,96367.09
2023-05-14T00:27:37.977Z,96349.69
2023-05-14T00:30:07.194Z,96352.16
2023-05-14T00:32:34.221Z,96366.75
2023-05-14T00:35:03.247Z,96352.38
2023-05-14T00:37:30.476Z,96344.63
2023-05-14T00:39:57.414Z,96325.72
2023-05-14T00:42:24.331Z,96328.34
2023-05-14T00:44:51.149Z,96366.00
2023-05-14T00:47:18.133Z,96342.63
2023-05-14T00:49:45.887Z,96360.13
2023-05-14T00:52:13.281Z,96364.91
2023-05-14T00:54:40.440Z,96361.34
2023-05-14T00:57:07.568Z,96363.94
2023-05-14T00:59:34.782Z,96345.31
2023-05-14T01:02:02.219Z,96343.16
2023-05-14T01:04:29.655Z,96331.34
2023-05-14T01:06:59.392Z,96351.94
2023-05-14T01:09:35.374Z,96342.69
2023-05-14T01:12:02.282Z,96352.13
2023-05-14T01:14:38.406Z,96319.94
2023-05-14T01:17:06.601Z,96309.84
2023-05-14T01:19:44.309Z,96327.78
2023-05-14T01:22:12.373Z,96260.16
2023-05-14T01:24:39.316Z,96332.16
2023-05-14T01:27:27.914Z,96335.53
2023-05-14T01:30:10.217Z,96321.72
2023-05-14T01:32:39.144Z,96313.41
2023-05-14T01:35:08.211Z,96314.06
2023-05-14T01:37:36.802Z,96313.00
2023-05-14T01:40:05.493Z,96282.69
2023-05-14T01:42:33.010Z,96356.19
2023-05-14T01:45:00.103Z,96350.25
2023-05-14T01:47:27.112Z,96323.28
2023-05-14T01:49:53.978Z,96357.88
2023-05-14T01:52:21.573Z,96354.66
2023-05-14T01:54:48.895Z,96303.88
2023-05-14T01:57:15.885Z,96326.97
2023-05-14T01:59:42.761Z,96356.44
2023-05-14T02:02:09.585Z,96325.91
2023-05-14T02:04:36.466Z,96353.25
2023-05-14T02:07:03.863Z,96339.69
2023-05-14T02:09:30.991Z,96332.41
2023-05-14T02:11:58.397Z,96343.66
2023-05-14T02:14:25.244Z,96313.38
2023-05-14T02:16:52.165Z,96343.97
2023-05-14T02:19:19.132Z,96285.50
2023-05-14T02:21:46.144Z,96338.56
2023-05-14T02:24:13.019Z,96327.50
2023-05-14T02:26:39.923Z,96319.56
2023-05-14T02:29:06.793Z,96325.78
2023-05-14T02:31:33.936Z,96311.53
2023-05-14T02:34:04.798Z,96343.56
2023-05-14T02:36:32.096Z,96338.72
2023-05-14T02:38:59.846Z,96298.75
2023-05-14T02:41:27.059Z,96340.66
2023-05-14T02:43:54.336Z,96328.41
2023-05-14T02:46:21.429Z,96318.91
2023-05-14T02:48:48.328Z,96321.53
2023-05-14T02:51:15.161Z,96285.56
2023-05-14T02:53:42.113Z,96331.63
2023-05-14T02:56:09.259Z,96327.75
2023-05-14T02:58:36.185Z,96321.94
2023-05-14T03:01:03.220Z,96301.81
2023-05-14T03:03:30.976Z,96307.16
2023-05-14T03:05:58.257Z,96309.47
2023-05-14T03:08:25.154Z,96316.28
2023-05-14T03:10:52.028Z,96310.69
2023-05-14T03:13:20.925Z,96335.94
2023-05-14T03:15:48.774Z,96331.66
2023-05-14T03:18:15.753Z,96314.66
2023-05-14T03:20:42.617Z,96300.91
2023-05-14T03:23:09.564Z,96303.91
2023-05-14T03:25:36.593Z,96305.75
2023-05-14T03:28:03.748Z,96331.75
2023-05-14T03:30:31.155Z,96325.97
2023-05-14T03:32:58.216Z,96322.19
2023-05-14T03:35:25.100Z,96317.25
2023-05-14T03:37:53.243Z,96318.50
2023-05-14T03:40:20.150Z,96328.59
2023-05-14T03:42:46.949Z,96298.13
2023-05-14T03:45:15.829Z,96334.81
2023-05-14T03:47:42.789Z,96303.84
2023-05-14T03:50:09.840Z,96298.13
2023-05-14T03:52:36.759Z,96308.13
2023-05-14T03:55:04.047Z,96317.53
2023-05-14T03:57:30.943Z,96278.31
2023-05-14T03:59:57.821Z,96319.75
2023-05-14T04:02:24.731Z,96306.00
2023-05-14T04:04:51.726Z,96311.09
2023-05-14T04:07:20.430Z,96313.50
2023-05-14T04:09:47.286Z,96315.31
2023-05-14T04:12:14.228Z,96303.66
2023-05-14T04:14:41.229Z,96313.19
2023-05-14T04:17:08.115Z,96287.53
2023-05-14T04:19:34.957Z,96315.50
2023-05-14T04:22:03.140Z,96281.81
2023-05-14T04:24:29.961Z,96307.53
2023-05-14T04:26:56.813Z,96292.66
2023-05-14T04:29:23.664Z,96258.00
2023-05-14T04:31:50.573Z,96283.88
2023-05-14T04:34:17.546Z,96305.97
2023-05-14T04:36:44.388Z,96297.78
2023-05-14T04:39:12.677Z,96263.38
2023-05-14T04:41:39.626Z,96286.97
2023-05-14T04:44:07.238Z,96282.50
2023-05-14T04:46:34.194Z,96272.13
2023-05-14T04:49:01.216Z,96263.81
2023-05-14T04:51:28.171Z,96292.72
2023-05-14T04:53:55.054Z,96280.00
2023-05-14T04:56:21.891Z,96254.59
2023-05-14T04:58:48.763Z,96284.19
2023-05-14T05:01:16.025Z,96295.38
2023-05-14T05:03:43.027Z,96292.47
2023-05-14T05:06:09.968Z,96281.81
2023-05-14T05:08:36.980Z,96275.22
2023-05-14T05:11:04.299Z,96275.88
2023-05-14T05:13:32.389Z,96263.63
2023-05-14T05:15:59.377Z,96252.34
2023-05-14T05:18:26.345Z,96302.09
2023-05-14T05:20:53.215Z,96283.53
2023-05-14T05:23:20.369Z,96287.41
2023-05-14T05:25:47.220Z,96277.50
2023-05-14T05:28:14.066Z,96289.91
2023-05-14T05:30:41.312Z,96302.44
2023-05-14T05:33:08.266Z,96252.72
2023-05-14T05:35:35.262Z,96297.94
2023-05-14T05:38:02.205Z,96281.66
2023-05-14T05:40:29.184Z,96296.78
2023-05-14T05:42:56.114Z,96282.69
2023-05-14T05:45:23.176Z,96272.09
2023-05-14T05:47:50.192Z,96305.50
2023-05-14T05:50:18.870Z,96299.13
2023-05-14T05:52:46.782Z,96285.94
2023-05-14T05:55:13.820Z,96319.00
2023-05-14T05:57:40.749Z,96304.41
2023-05-14T06:00:13.970Z,96312.59
2023-05-14T06:02:44.270Z,96317.38
2023-05-14T06:05:11.772Z,96310.41
2023-05-14T06:07:39.041Z,96278.56
2023-05-14T06:10:06.692Z,96274.34
2023-05-14T06:12:33.638Z,96302.59
2023-05-14T06:15:00.494Z,96322.88
2023-05-14T06:17:27.464Z,96322.88
2023-05-14T06:19:54.364Z,96275.00
2023-05-14T06:22:21.236Z,96322.03
2023-05-14T06:24:48.572Z,96282.88
2023-05-14T06:27:15.424Z,96313.78
2023-05-14T06:29:42.325Z,96294.81
2023-05-14T06:32:09.514Z,96287.72
2023-05-14T06:34:36.488Z,96302.28
2023-05-14T06:37:04.344Z,96314.59
2023-05-14T06:39:31.272Z,96314.19
2023-05-14T06:41:58.134Z,96325.38
2023-05-14T06:44:25.027Z,96302.88
2023-05-14T06:46:52.320Z,96321.56
2023-05-14T06:49:19.390Z,96315.63
2023-05-14T06:51:46.354Z,96317.09
2023-05-14T06:54:13.381Z,96301.59
2023-05-14T06:56:40.512Z,96330.94
2023-05-14T06:59:07.406Z,96337.03
2023-05-14T07:01:34.284Z,96283.38
2023-05-14T07:04:01.206Z,96308.13
2023-05-14T07:06:28.196Z,96329.53
2023-05-14T07:08:55.400Z,96325.03
2023-05-14T07:11:22.491Z,96290.53
2023-05-14T07:13:49.403Z,96300.31
2023-05-14T07:16:16.260Z,96273.28
2023-05-14T07:18:44.057Z,96288.53
2023-05-14T07:21:11.591Z,96315.91
2023-05-14T07:23:41.489Z,96290.91
2023-05-14T07:26:08.556Z,96294.78
2023-05-14T07:28:35.532Z,96299.44
2023-05-14T07:31:09.079Z,96279.97
2023-05-14T07:33:36.739Z,96284.38
2023-05-14T07:36:03.719Z,96297.94
2023-05-14T07:38:31.276Z,96270.03
2023-05-14T07:40:58.574Z,96300.00
2023-05-14T07:43:26.070Z,96296.25
2023-05-14T07:45:53.090Z,96292.31
2023-05-14T07:48:20.015Z,96307.19
2023-05-14T07:50:49.160Z,96310.06
2023-05-14T07:53:16.094Z,96288.25
2023-05-14T07:55:44.552Z,96285.69
2023-05-14T07:58:11.640Z,96314.91
2023-05-14T08:00:38.603Z,96293.97
2023-05-14T08:03:05.622Z,96276.72
2023-05-14T08:05:33.199Z,96278.88
2023-05-14T08:08:00.041Z,96293.53
2023-05-14T08:10:27.318Z,96284.84
2023-05-14T08:12:54.538Z,96305.78
2023-05-14T08:15:21.638Z,96269.28
2023-05-14T08:17:48.607Z,96293.53
2023-05-14T08:20:15.879Z,96268.50
2023-05-14T08:22:42.771Z,96272.56
2023-05-14T08:25:10.049Z,96307.75
2023-05-14T08:27:36.970Z,96284.50
2023-05-14T08:30:04.641Z,96298.94
2023-05-14T08:32:31.700Z,96251.38
2023-05-14T08:34:58.578Z,96286.34
2023-05-14T08:37:25.547Z,96292.63
2023-05-14T08:39:52.415Z,96289.00
2023-05-14T08:42:22.001Z,96294.50
2023-05-14T08:44:52.837Z,96257.00
2023-05-14T08:47:22.253Z,96282.94
2023-05-14T08:49:58.283Z,96291.13
2023-05-14T08:52:25.267Z,96233.66
2023-05-14T08:54:54.170Z,96283.38
2023-05-14T08:57:21.722Z,96264.63
2023-05-14T08:59:48.739Z,96263.69
2023-05-14T09:02:17.649Z,96230.16
2023-05-14T09:04:45.220Z,96284.19
2023-05-14T09:07:12.456Z,96255.72
2023-05-14T09:09:39.572Z,96287.03
2023-05-14T09:12:06.842Z,96283.72
2023-05-14T09:14:37.316Z,96272.25
2023-05-14T09:17:04.997Z,96237.31
2023-05-14T09:19:31.928Z,96242.63
2023-05-14T09:21:59.736Z,96237.53
2023-05-14T09:24:31.039Z,96259.66
2023-05-14T09:26:58.781Z,96258.94
2023-05-14T09:29:26.500Z,96251.13
2023-05-14T09:31:54.466Z,96242.00
2023-05-14T09:34:40.753Z,96224.84
2023-05-14T09:37:09.354Z,96251.09
2023-05-14T09:39:37.832Z,96257.78
2023-05-14T09:42:05.603Z,96223.97
2023-05-14T09:44:32.755Z,96215.16
2023-05-14T09:46:59.792Z,96227.41
2023-05-14T09:49:26.851Z,96254.53
2023-05-14T09:51:53.898Z,96213.25
2023-05-14T09:54:20.851Z,96242.28
2023-05-14T09:56:47.664Z,96227.94
2023-05-14T09:59:14.611Z,96214.34
2023-05-14T10:01:43.817Z,96236.88
2023-05-14T10:04:12.362Z,96217.34
2023-05-14T10:06:40.536Z,96241.28
2023-05-14T10:09:12.446Z,96244.63
2023-05-14T10:11:44.138Z,96217.06
2023-05-14T10:14:24.903Z,96226.25
2023-05-14T10:16:53.935Z,96233.75
2023-05-14T10:19:24.467Z,96176.91
2023-05-14T10:22:04.473Z,96226.53
2023-05-14T10:24:32.674Z,96212.47
2023-05-14T10:26:59.926Z,96200.38
2023-05-14T10:29:35.434Z,96205.00
2023-05-14T10:32:10.309Z,96214.34
2023-05-14T10:34:44.271Z,96213.28
2023-05-14T10:37:15.012Z,96214.34
2023-05-14T10:39:49.984Z,96223.09
2023-05-14T10:42:19.251Z,96186.38
2023-05-14T10:44:58.728Z,96211.88
2023-05-14T10:47:29.669Z,96170.47
2023-05-14T10:49:58.876Z,96195.38
2023-05-14T10:52:26.505Z,96220.94
2023-05-14T10:54:59.136Z,96209.66
2023-05-14T10:57:30.089Z,96210.50
2023-05-14T10:59:59.831Z,96212.53
2023-05-14T11:02:27.849Z,96210.47
2023-05-14T11:04:59.009Z,96207.28
2023-05-14T11:07:31.918Z,96209.22
2023-05-14T11:10:22.811Z,96218.41
2023-05-14T11:12:51.268Z,96187.94
2023-05-14T11:15:20.758Z,96173.06
2023-05-14T11:17:48.731Z,96206.78
2023-05-14T11:20:16.951Z,96203.28
2023-05-14T11:22:45.091Z,96201.47
2023-05-14T11:25:15.914Z,96185.59
2023-05-14T11:27:47.148Z,96179.91
2023-05-14T11:30:14.392Z,96199.72
2023-05-14T11:32:41.850Z,96196.75
2023-05-14T11:35:08.981Z,96199.06
2023-05-14T11:37:35.952Z,96193.59
2023-05-14T11:40:02.846Z,96187.50
2023-05-14T11:42:29.779Z,96187.38
2023-05-14T11:44:56.896Z,96183.97
2023-05-14T11:47:23.849Z,96146.38
2023-05-14T11:49:50.748Z,96155.25
2023-05-14T11:52:19.710Z,96186.63
2023-05-14T11:54:46.851Z,96174.75
2023-05-14T11:57:21.190Z,96179.56
2023-05-14T11:59:49.712Z,96170.94
2023-05-14T12:02:18.460Z,96177.31
2023-05-14T12:04:52.412Z,96159.88
2023-05-14T12:07:19.414Z,96164.91
2023-05-14T12:09:51.565Z,96166.25
2023-05-14T12:12:20.360Z,96168.44
2023-05-14T12:14:48.325Z,96169.78
2023-05-14T12:17:23.095Z,96167.56
2023-05-14T12:19:52.539Z,96169.25
2023-05-14T12:22:22.505Z,96155.44
2023-05-14T12:25:00.257Z,96157.28
2023-05-14T12:27:29.792Z,96154.19
2023-05-14T12:30:20.522Z,96142.22
2023-05-14T12:32:54.065Z,96130.06
2023-05-14T12:35:22.840Z,96142.28
2023-05-14T12:37:50.129Z,96133.53
2023-05-14T12:40:17.102Z,96134.53
2023-05-14T12:42:44.031Z,96140.94
2023-05-14T12:45:11.651Z,96140.53
2023-05-14T12:47:38.666Z,96128.94
2023-05-14T12:50:06.337Z,96101.78
2023-05-14T12:52:38.501Z,96124.38
2023-05-14T12:55:07.722Z,96087.75
2023-05-14T12:57:35.770Z,96119.66
2023-05-14T13:00:06.984Z,96124.63
2023-05-14T13:02:43.054Z,96098.84
2023-05-14T13:05:11.585Z,96115.56
2023-05-14T13:07:39.094Z,96111.50
2023-05-14T13:10:06.972Z,96115.56
2023-05-14T13:12:34.219Z,96129.13
2023-05-14T13:15:01.161Z,96124.41
2023-05-14T13:17:28.232Z,96079.47
2023-05-14T13:19:55.231Z,96114.94
2023-05-14T13:22:22.114Z,96113.03
2023-05-14T13:24:48.911Z,96072.31
2023-05-14T13:27:15.735Z,96095.44
2023-05-14T13:29:42.638Z,96098.06
2023-05-14T13:32:09.457Z,96096.06
2023-05-14T13:34:36.475Z,96095.88
2023-05-14T13:37:04.157Z,96089.38
2023-05-14T13:39:31.086Z,96104.75
2023-05-14T13:41:58.117Z,96105.78
2023-05-14T13:44:25.151Z,96084.56
2023-05-14T13:46:52.131Z,96098.41
2023-05-14T13:49:19.365Z,96099.00
2023-05-14T13:51:46.299Z,96097.50
2023-05-14T13:54:13.204Z,96090.69
2023-05-14T13:56:40.483Z,96072.31
2023-05-14T13:59:07.527Z,96026.50
2023-05-14T14:01:34.495Z,96083.78
2023-05-14T14:04:01.394Z,96087.06
2023-05-14T14:06:28.245Z,96073.50
2023-05-14T14:08:55.143Z,96028.06
2023-05-14T14:11:22.288Z,96060.34
2023-05-14T14:13:49.272Z,96060.88
2023-05-14T14:16:16.535Z,96079.63
2023-05-14T14:18:43.621Z,96051.31
2023-05-14T14:21:10.698Z,96073.09
2023-05-14T14:23:37.716Z,96074.78
2023-05-14T14:26:04.586Z,96074.53
2023-05-14T14:28:31.608Z,96021.75
2023-05-14T14:30:58.732Z,96062.31
2023-05-14T14:33:25.965Z,96054.34
2023-05-14T14:35:53.178Z,96061.09
2023-05-14T14:38:20.319Z,96056.69
2023-05-14T14:40:47.240Z,96056.41
2023-05-14T14:43:14.106Z,96028.94
2023-05-14T14:45:41.065Z,96028.81
2023-05-14T14:48:28.159Z,96047.94
2023-05-14T14:50:55.644Z,96044.72
2023-05-14T14:53:23.825Z,96041.09
2023-05-14T14:55:51.425Z,96028.66
2023-05-14T14:58:19.774Z,96043.03
2023-05-14T15:00:47.422Z,96009.97
2023-05-14T15:03:15.449Z,96014.53
2023-05-14T15:05:42.666Z,96030.94
2023-05-14T15:08:10.111Z,96037.84
2023-05-14T15:10:38.490Z,96034.34
2023-05-14T15:13:06.959Z,96025.53
2023-05-14T15:15:35.300Z,96023.78
2023-05-14T15:18:03.370Z,96033.19
2023-05-14T15:20:30.833Z,96027.38
2023-05-14T15:22:57.769Z,95965.19
2023-05-14T15:25:25.726Z,96029.22
2023-05-14T15:27:52.817Z,96026.22
2023-05-14T15:30:19.794Z,95986.50
2023-05-14T15:32:46.991Z,96030.00
2023-05-14T15:35:14.373Z,96031.50
2023-05-14T15:37:43.313Z,96007.66
2023-05-14T15:40:11.294Z,95998.06
2023-05-14T15:42:40.260Z,96019.38
2023-05-14T15:45:07.929Z,95992.53
2023-05-14T15:47:35.116Z,95997.59
2023-05-14T15:50:02.399Z,96020.38
2023-05-14T15:52:29.352Z,96025.50
2023-05-14T15:54:57.643Z,96007.50
2023-05-14T15:57:24.635Z,95999.16
2023-05-14T15:59:51.816Z,96020.06
2023-05-14T16:02:18.775Z,96012.00
2023-05-14T16:04:45.655Z,96025.72
2023-05-14T16:07:13.551Z,96021.16
2023-05-14T16:09:40.676Z,96012.25
2023-05-14T16:12:08.282Z,96023.72
2023-05-14T16:14:35.520Z,96021.88
2023-05-14T16:17:02.559Z,95999.63
2023-05-14T16:19:29.684Z,96001.63
2023-05-14T16:21:56.623Z,96004.38
2023-05-14T16:24:23.500Z,96015.59
2023-05-14T16:26:50.641Z,96026.97
2023-05-14T16:29:17.811Z,96013.38
2023-05-14T16:31:44.684Z,95979.28
2023-05-14T16:34:11.606Z,95998.09
2023-05-14T16:36:38.557Z,96025.84
2023-05-14T16:39:07.671Z,96000.09
2023-05-14T16:41:36.181Z,96023.59
2023-05-14T16:44:03.665Z,96025.63
2023-05-14T16:46:31.428Z,96027.78
2023-05-14T16:48:58.451Z,96018.91
2023-05-14T16:51:25.333Z,96027.22
2023-05-14T16:53:52.247Z,96014.88
2023-05-14T16:56:19.442Z,96006.22
2023-05-14T16:58:46.295Z,96009.22
2023-05-14T17:01:13.178Z,95989.50
2023-05-14T17:03:40.014Z,96014.53
2023-05-14T17:06:07.426Z,96023.91
2023-05-14T17:08:35.791Z,96021.72
2023-05-14T17:11:05.987Z,96023.34
2023-05-14T17:13:33.596Z,96023.53
2023-05-14T17:16:01.061Z,96017.88
2023-05-14T17:18:28.472Z,96000.47
2023-05-14T17:20:55.505Z,96022.97
2023-05-14T17:23:22.349Z,96022.13
2023-05-14T17:25:49.311Z,96038.91
2023-05-14T17:28:16.242Z,96007.19
2023-05-14T17:30:43.165Z,96021.66
2023-05-14T17:33:10.178Z,96027.94
2023-05-14T17:35:37.511Z,96031.09
2023-05-14T17:38:04.724Z,96014.47
2023-05-14T17:40:31.697Z,96030.59
2023-05-14T17:42:58.681Z,96036.47
2023-05-14T17:45:26.898Z,96031.31
2023-05-14T17:47:54.118Z,96007.81
2023-05-14T17:50:21.139Z,96015.47
2023-05-14T17:52:48.274Z,95998.72
2023-05-14T17:55:15.387Z,96008.69
2023-05-14T17:57:42.436Z,96036.06
2023-05-14T18:00:09.848Z,96004.97
2023-05-14T18:02:39.739Z,96015.78
2023-05-14T18:05:06.950Z,96015.06
2023-05-14T18:07:33.897Z,96010.31
2023-05-14T18:10:00.851Z,96028.91
2023-05-14T18:12:27.766Z,96026.31
2023-05-14T18:14:54.832Z,96030.38
2023-05-14T18:17:21.839Z,96031.13
2023-05-14T18:19:48.743Z,96008.72
2023-05-14T18:22:15.898Z,96005.00
2023-05-14T18:24:44.465Z,96012.25
2023-05-14T18:27:14.457Z,96017.97
2023-05-14T18:29:42.908Z,95981.66
2023-05-14T18:32:09.793Z,95991.22
2023-05-14T18:34:36.819Z,96007.00
2023-05-14T18:37:03.767Z,95989.19
2023-05-14T18:39:30.815Z,96003.28
2023-05-14T18:41:57.730Z,96012.72
2023-05-14T18:44:24.581Z,96002.13
2023-05-14T18:46:51.761Z,96016.16
2023-05-14T18:49:18.629Z,95983.66
2023-05-14T18:51:45.729Z,96000.75
2023-05-14T18:54:12.647Z,95981.47
2023-05-14T18:56:45.499Z,95997.28
2023-05-14T18:59:14.351Z,95993.78
2023-05-14T19:01:41.296Z,96009.09
2023-05-14T19:04:08.493Z,95995.34
2023-05-14T19:06:36.403Z,96015.59
2023-05-14T19:09:25.041Z,95974.66
2023-05-14T19:11:53.742Z,96020.91
2023-05-14T19:14:22.793Z,96028.72
2023-05-14T19:16:50.255Z,96005.97
2023-05-14T19:19:17.299Z,96004.91
2023-05-14T19:21:44.297Z,96004.38
2023-05-14T19:24:11.342Z,96026.88
2023-05-14T19:26:38.464Z,96023.03
2023-05-14T19:29:05.416Z,95993.25
2023-05-14T19:31:32.551Z,96018.03
2023-05-14T19:33:59.449Z,96018.34
2023-05-14T19:36:26.504Z,96003.31
2023-05-14T19:38:53.446Z,95999.56
2023-05-14T19:41:21.855Z,96026.09
2023-05-14T19:43:48.813Z,96016.09
2023-05-14T19:46:15.932Z,96026.34
2023-05-14T19:48:42.944Z,96008.41
2023-05-14T19:51:09.968Z,96017.09
2023-05-14T19:53:37.054Z,96003.69
2023-05-14T19:56:04.125Z,95983.75
2023-05-14T19:58:31.159Z,96019.75
2023-05-14T20:00:58.979Z,96019.06
2023-05-14T20:03:26.351Z,96012.59
2023-05-14T20:05:54.322Z,96021.53
2023-05-14T20:08:21.757Z,96006.06
2023-05-14T20:10:48.913Z,95981.44
2023-05-14T20:13:15.910Z,95988.47
2023-05-14T20:15:45.696Z,95998.81
2023-05-14T20:18:13.283Z,96014.88
2023-05-14T20:20:40.248Z,96017.06
2023-05-14T20:23:07.192Z,96004.53
2023-05-14T20:25:34.759Z,95992.44
2023-05-14T20:28:01.902Z,96010.50
2023-05-14T20:30:28.894Z,95995.06
2023-05-14T20:32:56.115Z,96006.06
2023-05-14T20:35:23.564Z,95991.66
2023-05-14T20:37:50.880Z,96013.03
2023-05-14T20:40:17.912Z,96014.66
2023-05-14T20:42:45.227Z,95997.19
2023-05-14T20:45:12.127Z,95987.50
2023-05-14T20:47:40.356Z,95987.06
2023-05-14T20:50:07.914Z,96008.38
2023-05-14T20:52:34.899Z,95994.63
2023-05-14T20:55:02.502Z,95986.72
2023-05-14T20:57:29.605Z,95982.75
2023-05-14T20:59:57.067Z,95980.31
2023-05-14T21:02:24.128Z,95989.81
2023-05-14T21:04:51.488Z,96000.72
2023-05-14T21:07:18.566Z,95992.56
2023-05-14T21:09:50.998Z,95957.00
2023-05-14T21:12:19.168Z,95982.19
2023-05-14T21:14:46.475Z,95938.50
2023-05-14T21:17:13.481Z,95986.63
2023-05-14T21:19:40.393Z,95988.91
2023-05-14T21:22:07.610Z,95979.47
2023-05-14T21:24:34.564Z,95975.16
2023-05-14T21:27:01.552Z,95974.72
2023-05-14T21:29:28.595Z,95986.50
2023-05-14T21:31:55.558Z,95993.56
2023-05-14T21:34:22.609Z,95981.75
2023-05-14T21:36:49.585Z,95980.56
2023-05-14T21:39:16.532Z,95987.47
2023-05-14T21:41:43.571Z,95977.03
2023-05-14T21:44:10.528Z,95966.44
2023-05-14T21:46:37.542Z,95977.91
2023-05-14T21:49:04.668Z,95986.84
2023-05-14T21:51:32.360Z,95967.03
2023-05-14T21:53:59.471Z,95953.16
2023-05-14T21:56:26.638Z,95965.59
2023-05-14T21:58:55.751Z,95940.28
2023-05-14T22:01:22.899Z,95958.09
2023-05-14T22:03:49.941Z,95954.59
2023-05-14T22:06:17.020Z,95929.47
2023-05-14T22:08:43.942Z,95961.31
2023-05-14T22:11:10.849Z,95944.25
2023-05-14T22:13:41.116Z,95921.59
2023-05-14T22:16:13.223Z,95941.81
2023-05-14T22:18:41.466Z,95926.63
2023-05-14T22:21:08.460Z,95941.38
2023-05-14T22:23:35.461Z,95939.41
2023-05-14T22:26:02.309Z,95920.81
2023-05-14T22:28:29.180Z,95941.59
2023-05-14T22:30:56.797Z,95926.41
2023-05-14T22:33:23.733Z,95931.69
2023-05-14T22:35:50.989Z,95920.34
2023-05-14T22:38:18.008Z,95927.06
2023-05-14T22:40:44.916Z,95913.63
2023-05-14T22:43:11.906Z,95917.72
2023-05-14T22:45:38.901Z,95931.06
2023-05-14T22:48:06.125Z,95890.13
2023-05-14T22:50:33.182Z,95923.34
2023-05-14T22:53:00.156Z,95911.47
2023-05-14T22:55:27.444Z,95906.28
2023-05-14T22:57:54.568Z,95895.97
2023-05-14T23:00:21.661Z,95923.13
2023-05-14T23:02:48.560Z,95928.09
2023-05-14T23:05:15.756Z,95910.47
2023-05-14T23:07:42.918Z,95910.03
2023-05-14T23:10:10.448Z,95899.25
2023-05-14T23:12:37.407Z,95920.16
2023-05-14T23:15:04.680Z,95914.88
2023-05-14T23:17:31.643Z,95918.28
2023-05-14T23:19:58.577Z,95902.44
2023-05-14T23:22:25.536Z,95919.16
2023-05-14T23:24:52.390Z,95911.47
2023-05-14T23:27:19.424Z,95895.63
2023-05-14T23:29:46.298Z,95884.72
2023-05-14T23:32:13.262Z,95883.94
2023-05-14T23:34:40.150Z,95902.66
2023-05-14T23:37:07.140Z,95867.81
2023-05-14T23:39:34.031Z,95895.63
2023-05-14T23:42:01.072Z,95867.38
2023-05-14T23:44:28.000Z,95891.13
2023-05-14T23:46:54.997Z,95880.78
2023-05-14T23:49:22.306Z,95874.84
2023-05-14T23:51:49.126Z,95885.72
2023-05-14T23:54:17.523Z,95867.47
2023-05-14T23:56:44.662Z,95873.63
2023-05-14T23:59:12.074Z,95856.13
